sensor_id;sensor_type;location;lat;lon;timestamp;P1;durP1;ratioP1;P2;durP2;ratioP2
52668;SDS011;59898;52.786;6.892;2023-04-06T00:01:28;9.45;;;6.30;;
52668;SDS011;59898;52.786;6.892;2023-04-06T00:04:49;6.75;;;5.50;;
52668;SDS011;59898;52.786;6.892;2023-04-06T00:08:10;7.57;;;6.00;;
52668;SDS011;59898;52.786;6.892;2023-04-06T00:11:31;8.73;;;5.05;;
52668;SDS011;59898;52.786;6.892;2023-04-06T00:14:51;6.63;;;5.15;;
52668;SDS011;59898;52.786;6.892;2023-04-06T00:18:12;7.57;;;4.32;;
52668;SDS011;59898;52.786;6.892;2023-04-06T00:21:33;8.95;;;5.93;;
52668;SDS011;59898;52.786;6.892;2023-04-06T00:24:54;6.80;;;4.95;;
52668;SDS011;59898;52.786;6.892;2023-04-06T00:28:14;8.65;;;5.45;;
52668;SDS011;59898;52.786;6.892;2023-04-06T00:31:35;8.23;;;4.90;;
52668;SDS011;59898;52.786;6.892;2023-04-06T00:34:56;9.95;;;5.82;;
52668;SDS011;59898;52.786;6.892;2023-04-06T00:38:17;8.18;;;6.05;;
52668;SDS011;59898;52.786;6.892;2023-04-06T00:41:38;6.43;;;5.30;;
52668;SDS011;59898;52.786;6.892;2023-04-06T00:45:05;7.30;;;5.43;;
52668;SDS011;59898;52.786;6.892;2023-04-06T00:48:27;7.05;;;5.30;;
52668;SDS011;59898;52.786;6.892;2023-04-06T00:51:47;7.15;;;5.82;;
52668;SDS011;59898;52.786;6.892;2023-04-06T00:55:08;8.32;;;5.65;;
52668;SDS011;59898;52.786;6.892;2023-04-06T00:58:29;7.95;;;5.50;;
52668;SDS011;59898;52.786;6.892;2023-04-06T01:01:50;8.10;;;5.53;;
52668;SDS011;59898;52.786;6.892;2023-04-06T01:05:11;6.22;;;5.15;;
52668;SDS011;59898;52.786;6.892;2023-04-06T01:08:32;8.40;;;5.80;;
52668;SDS011;59898;52.786;6.892;2023-04-06T01:11:52;7.80;;;5.65;;
52668;SDS011;59898;52.786;6.892;2023-04-06T01:15:13;8.55;;;6.10;;
52668;SDS011;59898;52.786;6.892;2023-04-06T01:18:35;6.78;;;5.63;;
52668;SDS011;59898;52.786;6.892;2023-04-06T01:21:57;8.10;;;5.75;;
52668;SDS011;59898;52.786;6.892;2023-04-06T01:25:18;7.72;;;5.43;;
52668;SDS011;59898;52.786;6.892;2023-04-06T01:28:38;6.40;;;5.07;;
52668;SDS011;59898;52.786;6.892;2023-04-06T01:31:59;7.95;;;5.70;;
52668;SDS011;59898;52.786;6.892;2023-04-06T01:35:20;7.72;;;5.95;;
52668;SDS011;59898;52.786;6.892;2023-04-06T01:38:41;7.35;;;5.55;;
52668;SDS011;59898;52.786;6.892;2023-04-06T01:42:02;9.60;;;5.95;;
52668;SDS011;59898;52.786;6.892;2023-04-06T01:45:23;8.30;;;5.63;;
52668;SDS011;59898;52.786;6.892;2023-04-06T01:48:44;6.93;;;6.05;;
52668;SDS011;59898;52.786;6.892;2023-04-06T01:52:05;6.85;;;5.95;;
52668;SDS011;59898;52.786;6.892;2023-04-06T01:55:26;6.88;;;5.60;;
52668;SDS011;59898;52.786;6.892;2023-04-06T01:58:47;7.35;;;5.55;;
52668;SDS011;59898;52.786;6.892;2023-04-06T02:02:07;9.23;;;6.25;;
52668;SDS011;59898;52.786;6.892;2023-04-06T02:05:29;6.82;;;5.80;;
52668;SDS011;59898;52.786;6.892;2023-04-06T02:08:51;9.30;;;6.33;;
52668;SDS011;59898;52.786;6.892;2023-04-06T02:12:11;7.68;;;5.90;;
52668;SDS011;59898;52.786;6.892;2023-04-06T02:15:32;8.98;;;6.20;;
52668;SDS011;59898;52.786;6.892;2023-04-06T02:18:53;8.00;;;6.15;;
52668;SDS011;59898;52.786;6.892;2023-04-06T02:22:13;7.63;;;6.90;;
52668;SDS011;59898;52.786;6.892;2023-04-06T02:25:34;6.85;;;5.90;;
52668;SDS011;59898;52.786;6.892;2023-04-06T02:28:55;9.48;;;6.57;;
52668;SDS011;59898;52.786;6.892;2023-04-06T02:32:16;9.43;;;6.68;;
52668;SDS011;59898;52.786;6.892;2023-04-06T02:35:37;10.77;;;7.30;;
52668;SDS011;59898;52.786;6.892;2023-04-06T02:38:57;8.38;;;6.75;;
52668;SDS011;59898;52.786;6.892;2023-04-06T02:42:18;8.25;;;6.75;;
52668;SDS011;59898;52.786;6.892;2023-04-06T02:45:39;8.60;;;6.75;;
52668;SDS011;59898;52.786;6.892;2023-04-06T02:49:00;21.10;;;7.13;;
52668;SDS011;59898;52.786;6.892;2023-04-06T02:52:20;7.30;;;5.70;;
52668;SDS011;59898;52.786;6.892;2023-04-06T02:55:41;9.25;;;6.63;;
52668;SDS011;59898;52.786;6.892;2023-04-06T02:59:02;8.18;;;6.85;;
52668;SDS011;59898;52.786;6.892;2023-04-06T03:02:23;7.93;;;6.07;;
52668;SDS011;59898;52.786;6.892;2023-04-06T03:05:43;6.80;;;6.07;;
52668;SDS011;59898;52.786;6.892;2023-04-06T03:09:05;8.60;;;6.00;;
52668;SDS011;59898;52.786;6.892;2023-04-06T03:12:26;7.20;;;6.50;;
52668;SDS011;59898;52.786;6.892;2023-04-06T03:15:47;8.30;;;6.18;;
52668;SDS011;59898;52.786;6.892;2023-04-06T03:19:07;7.45;;;6.15;;
52668;SDS011;59898;52.786;6.892;2023-04-06T03:22:28;8.63;;;6.60;;
52668;SDS011;59898;52.786;6.892;2023-04-06T03:25:49;8.45;;;6.63;;
52668;SDS011;59898;52.786;6.892;2023-04-06T03:29:10;10.23;;;6.28;;
52668;SDS011;59898;52.786;6.892;2023-04-06T03:32:31;7.13;;;6.35;;
52668;SDS011;59898;52.786;6.892;2023-04-06T03:35:51;11.55;;;6.97;;
52668;SDS011;59898;52.786;6.892;2023-04-06T03:39:12;8.68;;;6.25;;
52668;SDS011;59898;52.786;6.892;2023-04-06T03:42:33;9.95;;;7.55;;
52668;SDS011;59898;52.786;6.892;2023-04-06T03:45:54;8.82;;;6.78;;
52668;SDS011;59898;52.786;6.892;2023-04-06T03:49:15;10.65;;;7.32;;
52668;SDS011;59898;52.786;6.892;2023-04-06T03:52:35;10.93;;;6.32;;
52668;SDS011;59898;52.786;6.892;2023-04-06T03:55:56;9.75;;;7.22;;
52668;SDS011;59898;52.786;6.892;2023-04-06T03:59:17;12.52;;;7.88;;
52668;SDS011;59898;52.786;6.892;2023-04-06T04:02:38;12.68;;;8.55;;
52668;SDS011;59898;52.786;6.892;2023-04-06T04:05:59;12.02;;;8.35;;
52668;SDS011;59898;52.786;6.892;2023-04-06T04:09:19;11.63;;;8.45;;
52668;SDS011;59898;52.786;6.892;2023-04-06T04:12:40;9.95;;;8.32;;
52668;SDS011;59898;52.786;6.892;2023-04-06T04:16:01;8.82;;;6.85;;
52668;SDS011;59898;52.786;6.892;2023-04-06T04:19:21;10.98;;;6.95;;
52668;SDS011;59898;52.786;6.892;2023-04-06T04:22:42;10.68;;;6.88;;
52668;SDS011;59898;52.786;6.892;2023-04-06T04:26:03;15.23;;;7.45;;
52668;SDS011;59898;52.786;6.892;2023-04-06T04:29:24;8.98;;;7.22;;
52668;SDS011;59898;52.786;6.892;2023-04-06T04:32:45;11.13;;;7.90;;
52668;SDS011;59898;52.786;6.892;2023-04-06T04:36:06;13.00;;;7.90;;
52668;SDS011;59898;52.786;6.892;2023-04-06T04:39:27;9.70;;;7.85;;
52668;SDS011;59898;52.786;6.892;2023-04-06T04:42:48;11.18;;;7.15;;
52668;SDS011;59898;52.786;6.892;2023-04-06T04:46:11;9.85;;;7.70;;
52668;SDS011;59898;52.786;6.892;2023-04-06T04:49:31;10.07;;;8.18;;
52668;SDS011;59898;52.786;6.892;2023-04-06T04:52:52;10.95;;;7.68;;
52668;SDS011;59898;52.786;6.892;2023-04-06T04:56:13;8.55;;;7.38;;
52668;SDS011;59898;52.786;6.892;2023-04-06T04:59:34;11.57;;;9.15;;
52668;SDS011;59898;52.786;6.892;2023-04-06T05:02:55;11.02;;;8.75;;
52668;SDS011;59898;52.786;6.892;2023-04-06T05:06:16;15.65;;;8.43;;
52668;SDS011;59898;52.786;6.892;2023-04-06T05:09:36;12.57;;;9.05;;
52668;SDS011;59898;52.786;6.892;2023-04-06T05:12:57;14.70;;;10.65;;
52668;SDS011;59898;52.786;6.892;2023-04-06T05:16:18;13.60;;;9.80;;
52668;SDS011;59898;52.786;6.892;2023-04-06T05:19:38;12.18;;;9.50;;
52668;SDS011;59898;52.786;6.892;2023-04-06T05:22:59;11.73;;;8.93;;
52668;SDS011;59898;52.786;6.892;2023-04-06T05:26:20;14.80;;;9.15;;
52668;SDS011;59898;52.786;6.892;2023-04-06T05:29:41;15.18;;;9.32;;
52668;SDS011;59898;52.786;6.892;2023-04-06T05:33:02;11.75;;;9.60;;
52668;SDS011;59898;52.786;6.892;2023-04-06T05:36:23;14.20;;;10.95;;
52668;SDS011;59898;52.786;6.892;2023-04-06T05:39:43;15.80;;;9.30;;
52668;SDS011;59898;52.786;6.892;2023-04-06T05:43:04;14.55;;;10.70;;
52668;SDS011;59898;52.786;6.892;2023-04-06T05:46:25;15.80;;;8.85;;
52668;SDS011;59898;52.786;6.892;2023-04-06T05:49:46;15.75;;;9.95;;
52668;SDS011;59898;52.786;6.892;2023-04-06T05:53:06;12.38;;;8.63;;
52668;SDS011;59898;52.786;6.892;2023-04-06T05:56:27;13.15;;;9.38;;
52668;SDS011;59898;52.786;6.892;2023-04-06T05:59:50;14.90;;;10.35;;
52668;SDS011;59898;52.786;6.892;2023-04-06T06:03:11;12.65;;;10.00;;
52668;SDS011;59898;52.786;6.892;2023-04-06T06:06:32;17.15;;;9.65;;
52668;SDS011;59898;52.786;6.892;2023-04-06T06:09:56;12.57;;;10.18;;
52668;SDS011;59898;52.786;6.892;2023-04-06T06:13:18;11.88;;;8.68;;
52668;SDS011;59898;52.786;6.892;2023-04-06T06:16:38;15.13;;;8.75;;
52668;SDS011;59898;52.786;6.892;2023-04-06T06:19:59;12.32;;;9.18;;
52668;SDS011;59898;52.786;6.892;2023-04-06T06:23:20;16.20;;;8.77;;
52668;SDS011;59898;52.786;6.892;2023-04-06T06:26:40;13.50;;;9.13;;
52668;SDS011;59898;52.786;6.892;2023-04-06T06:30:02;11.10;;;9.15;;
52668;SDS011;59898;52.786;6.892;2023-04-06T06:33:23;11.68;;;8.05;;
52668;SDS011;59898;52.786;6.892;2023-04-06T06:36:43;13.02;;;9.50;;
52668;SDS011;59898;52.786;6.892;2023-04-06T06:40:04;16.48;;;9.73;;
52668;SDS011;59898;52.786;6.892;2023-04-06T06:43:26;13.50;;;8.73;;
52668;SDS011;59898;52.786;6.892;2023-04-06T06:46:47;17.10;;;9.60;;
52668;SDS011;59898;52.786;6.892;2023-04-06T06:50:08;11.93;;;9.40;;
52668;SDS011;59898;52.786;6.892;2023-04-06T06:53:28;13.98;;;8.98;;
52668;SDS011;59898;52.786;6.892;2023-04-06T06:56:49;17.02;;;12.48;;
52668;SDS011;59898;52.786;6.892;2023-04-06T07:00:10;17.92;;;11.65;;
52668;SDS011;59898;52.786;6.892;2023-04-06T07:03:33;21.63;;;10.38;;
52668;SDS011;59898;52.786;6.892;2023-04-06T07:06:53;12.23;;;9.88;;
52668;SDS011;59898;52.786;6.892;2023-04-06T07:10:14;13.30;;;9.57;;
52668;SDS011;59898;52.786;6.892;2023-04-06T07:13:35;12.77;;;9.52;;
52668;SDS011;59898;52.786;6.892;2023-04-06T07:16:56;14.88;;;10.05;;
52668;SDS011;59898;52.786;6.892;2023-04-06T07:20:17;17.10;;;9.52;;
52668;SDS011;59898;52.786;6.892;2023-04-06T07:23:38;13.00;;;9.68;;
52668;SDS011;59898;52.786;6.892;2023-04-06T07:26:59;12.48;;;10.07;;
52668;SDS011;59898;52.786;6.892;2023-04-06T07:30:20;14.80;;;10.77;;
52668;SDS011;59898;52.786;6.892;2023-04-06T07:33:42;18.92;;;10.60;;
52668;SDS011;59898;52.786;6.892;2023-04-06T07:37:02;11.68;;;9.90;;
52668;SDS011;59898;52.786;6.892;2023-04-06T07:40:23;17.60;;;11.05;;
52668;SDS011;59898;52.786;6.892;2023-04-06T07:43:46;16.37;;;10.03;;
52668;SDS011;59898;52.786;6.892;2023-04-06T07:47:06;11.77;;;9.38;;
52668;SDS011;59898;52.786;6.892;2023-04-06T07:50:27;12.35;;;10.63;;
52668;SDS011;59898;52.786;6.892;2023-04-06T07:53:48;15.60;;;9.38;;
52668;SDS011;59898;52.786;6.892;2023-04-06T07:57:10;12.13;;;9.10;;
52668;SDS011;59898;52.786;6.892;2023-04-06T08:00:31;14.25;;;9.65;;
52668;SDS011;59898;52.786;6.892;2023-04-06T08:03:51;16.10;;;10.82;;
52668;SDS011;59898;52.786;6.892;2023-04-06T08:07:12;15.30;;;10.65;;
52668;SDS011;59898;52.786;6.892;2023-04-06T08:10:33;14.32;;;9.93;;
52668;SDS011;59898;52.786;6.892;2023-04-06T08:13:54;15.38;;;11.82;;
52668;SDS011;59898;52.786;6.892;2023-04-06T08:17:17;13.48;;;10.27;;
52668;SDS011;59898;52.786;6.892;2023-04-06T08:20:38;13.35;;;10.68;;
52668;SDS011;59898;52.786;6.892;2023-04-06T08:24:00;19.90;;;10.88;;
52668;SDS011;59898;52.786;6.892;2023-04-06T08:27:21;14.60;;;9.90;;
52668;SDS011;59898;52.786;6.892;2023-04-06T08:30:42;15.60;;;10.45;;
52668;SDS011;59898;52.786;6.892;2023-04-06T08:34:03;13.70;;;11.13;;
52668;SDS011;59898;52.786;6.892;2023-04-06T08:37:24;14.18;;;10.77;;
52668;SDS011;59898;52.786;6.892;2023-04-06T08:40:45;14.45;;;10.30;;
52668;SDS011;59898;52.786;6.892;2023-04-06T08:44:08;17.70;;;10.65;;
52668;SDS011;59898;52.786;6.892;2023-04-06T08:47:28;13.32;;;10.70;;
52668;SDS011;59898;52.786;6.892;2023-04-06T08:50:49;12.93;;;9.57;;
52668;SDS011;59898;52.786;6.892;2023-04-06T08:54:11;18.98;;;11.27;;
52668;SDS011;59898;52.786;6.892;2023-04-06T08:57:31;17.45;;;10.48;;
52668;SDS011;59898;52.786;6.892;2023-04-06T09:00:53;14.95;;;10.23;;
52668;SDS011;59898;52.786;6.892;2023-04-06T09:04:14;20.50;;;11.32;;
52668;SDS011;59898;52.786;6.892;2023-04-06T09:07:36;13.40;;;10.50;;
52668;SDS011;59898;52.786;6.892;2023-04-06T09:10:57;17.42;;;12.15;;
52668;SDS011;59898;52.786;6.892;2023-04-06T09:14:32;15.85;;;10.98;;
52668;SDS011;59898;52.786;6.892;2023-04-06T09:17:57;17.90;;;10.80;;
52668;SDS011;59898;52.786;6.892;2023-04-06T09:21:18;13.57;;;10.45;;
52668;SDS011;59898;52.786;6.892;2023-04-06T09:24:41;17.65;;;10.65;;
52668;SDS011;59898;52.786;6.892;2023-04-06T09:28:12;17.83;;;10.70;;
52668;SDS011;59898;52.786;6.892;2023-04-06T09:31:33;14.90;;;10.75;;
52668;SDS011;59898;52.786;6.892;2023-04-06T09:34:53;15.30;;;11.45;;
52668;SDS011;59898;52.786;6.892;2023-04-06T09:38:14;15.25;;;10.23;;
52668;SDS011;59898;52.786;6.892;2023-04-06T09:41:35;15.70;;;11.18;;
52668;SDS011;59898;52.786;6.892;2023-04-06T09:44:56;15.48;;;12.35;;
52668;SDS011;59898;52.786;6.892;2023-04-06T09:48:17;17.08;;;12.63;;
52668;SDS011;59898;52.786;6.892;2023-04-06T09:51:46;15.38;;;12.25;;
52668;SDS011;59898;52.786;6.892;2023-04-06T09:55:14;14.75;;;12.70;;
52668;SDS011;59898;52.786;6.892;2023-04-06T09:58:41;21.70;;;13.07;;
52668;SDS011;59898;52.786;6.892;2023-04-06T10:02:05;20.63;;;14.23;;
52668;SDS011;59898;52.786;6.892;2023-04-06T10:05:40;18.48;;;12.68;;
52668;SDS011;59898;52.786;6.892;2023-04-06T10:09:06;17.63;;;13.88;;
52668;SDS011;59898;52.786;6.892;2023-04-06T10:12:28;19.95;;;14.07;;
52668;SDS011;59898;52.786;6.892;2023-04-06T10:15:49;21.33;;;13.20;;
52668;SDS011;59898;52.786;6.892;2023-04-06T10:19:18;17.52;;;13.18;;
52668;SDS011;59898;52.786;6.892;2023-04-06T10:22:45;20.75;;;13.55;;
52668;SDS011;59898;52.786;6.892;2023-04-06T10:26:26;21.90;;;14.52;;
52668;SDS011;59898;52.786;6.892;2023-04-06T10:29:47;21.30;;;15.43;;
52668;SDS011;59898;52.786;6.892;2023-04-06T10:33:14;23.80;;;16.10;;
52668;SDS011;59898;52.786;6.892;2023-04-06T10:36:36;20.77;;;15.55;;
52668;SDS011;59898;52.786;6.892;2023-04-06T10:39:57;20.45;;;13.88;;
52668;SDS011;59898;52.786;6.892;2023-04-06T10:43:19;22.98;;;16.13;;
52668;SDS011;59898;52.786;6.892;2023-04-06T10:46:41;18.85;;;15.45;;
52668;SDS011;59898;52.786;6.892;2023-04-06T10:50:17;21.17;;;15.65;;
52668;SDS011;59898;52.786;6.892;2023-04-06T10:53:38;21.80;;;15.63;;
52668;SDS011;59898;52.786;6.892;2023-04-06T11:00:22;24.23;;;16.20;;
52668;SDS011;59898;52.786;6.892;2023-04-06T11:03:47;21.58;;;17.00;;
52668;SDS011;59898;52.786;6.892;2023-04-06T11:07:12;25.63;;;16.27;;
52668;SDS011;59898;52.786;6.892;2023-04-06T11:10:46;26.95;;;17.77;;
52668;SDS011;59898;52.786;6.892;2023-04-06T11:14:09;26.73;;;18.13;;
52668;SDS011;59898;52.786;6.892;2023-04-06T11:17:30;23.67;;;16.90;;
52668;SDS011;59898;52.786;6.892;2023-04-06T11:20:52;29.35;;;19.58;;
52668;SDS011;59898;52.786;6.892;2023-04-06T11:24:13;23.23;;;17.45;;
52668;SDS011;59898;52.786;6.892;2023-04-06T11:27:39;26.40;;;17.02;;
52668;SDS011;59898;52.786;6.892;2023-04-06T11:31:00;24.70;;;17.25;;
52668;SDS011;59898;52.786;6.892;2023-04-06T11:34:21;25.33;;;18.70;;
52668;SDS011;59898;52.786;6.892;2023-04-06T11:37:43;24.58;;;17.95;;
52668;SDS011;59898;52.786;6.892;2023-04-06T11:41:04;24.52;;;17.42;;
52668;SDS011;59898;52.786;6.892;2023-04-06T11:47:59;23.38;;;16.98;;
52668;SDS011;59898;52.786;6.892;2023-04-06T11:51:23;23.00;;;16.38;;
52668;SDS011;59898;52.786;6.892;2023-04-06T11:54:44;23.27;;;16.92;;
52668;SDS011;59898;52.786;6.892;2023-04-06T11:58:06;25.73;;;18.30;;
52668;SDS011;59898;52.786;6.892;2023-04-06T12:01:27;23.67;;;18.13;;
52668;SDS011;59898;52.786;6.892;2023-04-06T12:04:48;24.50;;;18.05;;
52668;SDS011;59898;52.786;6.892;2023-04-06T12:08:09;25.20;;;17.60;;
52668;SDS011;59898;52.786;6.892;2023-04-06T12:11:30;26.13;;;18.50;;
52668;SDS011;59898;52.786;6.892;2023-04-06T12:14:51;26.98;;;18.52;;
52668;SDS011;59898;52.786;6.892;2023-04-06T12:18:11;23.63;;;17.33;;
52668;SDS011;59898;52.786;6.892;2023-04-06T12:21:35;28.02;;;18.92;;
52668;SDS011;59898;52.786;6.892;2023-04-06T12:25:00;26.10;;;18.52;;
52668;SDS011;59898;52.786;6.892;2023-04-06T12:28:21;23.63;;;18.23;;
52668;SDS011;59898;52.786;6.892;2023-04-06T12:31:45;30.80;;;19.98;;
52668;SDS011;59898;52.786;6.892;2023-04-06T12:35:06;31.25;;;20.00;;
52668;SDS011;59898;52.786;6.892;2023-04-06T12:38:28;23.77;;;16.23;;
52668;SDS011;59898;52.786;6.892;2023-04-06T12:41:50;24.58;;;17.98;;
52668;SDS011;59898;52.786;6.892;2023-04-06T12:45:11;23.73;;;16.92;;
52668;SDS011;59898;52.786;6.892;2023-04-06T12:48:31;26.30;;;18.77;;
52668;SDS011;59898;52.786;6.892;2023-04-06T12:51:52;28.40;;;19.13;;
52668;SDS011;59898;52.786;6.892;2023-04-06T12:55:13;26.02;;;17.27;;
52668;SDS011;59898;52.786;6.892;2023-04-06T12:58:33;26.08;;;16.40;;
52668;SDS011;59898;52.786;6.892;2023-04-06T13:01:55;25.98;;;18.33;;
52668;SDS011;59898;52.786;6.892;2023-04-06T13:05:16;24.95;;;18.92;;
52668;SDS011;59898;52.786;6.892;2023-04-06T13:08:38;26.92;;;16.80;;
52668;SDS011;59898;52.786;6.892;2023-04-06T13:11:59;24.83;;;17.65;;
52668;SDS011;59898;52.786;6.892;2023-04-06T13:15:21;27.60;;;18.02;;
52668;SDS011;59898;52.786;6.892;2023-04-06T13:18:41;25.33;;;17.90;;
52668;SDS011;59898;52.786;6.892;2023-04-06T13:22:02;26.20;;;18.50;;
52668;SDS011;59898;52.786;6.892;2023-04-06T13:25:29;24.67;;;17.55;;
52668;SDS011;59898;52.786;6.892;2023-04-06T13:28:50;23.85;;;16.80;;
52668;SDS011;59898;52.786;6.892;2023-04-06T13:32:11;24.48;;;17.27;;
52668;SDS011;59898;52.786;6.892;2023-04-06T13:35:32;25.67;;;18.38;;
52668;SDS011;59898;52.786;6.892;2023-04-06T13:38:53;25.48;;;18.95;;
52668;SDS011;59898;52.786;6.892;2023-04-06T13:42:15;25.77;;;16.90;;
52668;SDS011;59898;52.786;6.892;2023-04-06T13:45:36;23.23;;;17.33;;
52668;SDS011;59898;52.786;6.892;2023-04-06T13:48:57;23.27;;;16.80;;
52668;SDS011;59898;52.786;6.892;2023-04-06T13:52:18;22.70;;;17.02;;
52668;SDS011;59898;52.786;6.892;2023-04-06T13:55:39;29.00;;;15.48;;
52668;SDS011;59898;52.786;6.892;2023-04-06T13:59:02;24.13;;;16.13;;
52668;SDS011;59898;52.786;6.892;2023-04-06T14:02:23;24.00;;;16.17;;
52668;SDS011;59898;52.786;6.892;2023-04-06T14:05:47;19.83;;;14.23;;
52668;SDS011;59898;52.786;6.892;2023-04-06T14:09:08;24.48;;;16.60;;
52668;SDS011;59898;52.786;6.892;2023-04-06T14:12:28;24.95;;;16.58;;
52668;SDS011;59898;52.786;6.892;2023-04-06T14:15:52;25.27;;;16.70;;
52668;SDS011;59898;52.786;6.892;2023-04-06T14:19:15;26.70;;;16.98;;
52668;SDS011;59898;52.786;6.892;2023-04-06T14:22:37;24.52;;;17.35;;
52668;SDS011;59898;52.786;6.892;2023-04-06T14:26:02;26.90;;;17.15;;
52668;SDS011;59898;52.786;6.892;2023-04-06T14:29:24;24.20;;;16.23;;
52668;SDS011;59898;52.786;6.892;2023-04-06T14:32:44;23.65;;;16.15;;
52668;SDS011;59898;52.786;6.892;2023-04-06T14:36:05;23.38;;;16.85;;
52668;SDS011;59898;52.786;6.892;2023-04-06T14:39:26;23.67;;;15.48;;
52668;SDS011;59898;52.786;6.892;2023-04-06T14:42:47;25.23;;;15.15;;
52668;SDS011;59898;52.786;6.892;2023-04-06T14:46:08;22.42;;;13.63;;
52668;SDS011;59898;52.786;6.892;2023-04-06T14:49:29;18.52;;;12.98;;
52668;SDS011;59898;52.786;6.892;2023-04-06T14:52:50;19.15;;;14.32;;
52668;SDS011;59898;52.786;6.892;2023-04-06T14:56:10;18.63;;;13.88;;
52668;SDS011;59898;52.786;6.892;2023-04-06T14:59:31;20.38;;;15.20;;
52668;SDS011;59898;52.786;6.892;2023-04-06T15:02:53;19.25;;;14.23;;
52668;SDS011;59898;52.786;6.892;2023-04-06T15:06:14;21.08;;;14.10;;
52668;SDS011;59898;52.786;6.892;2023-04-06T15:09:35;15.40;;;11.13;;
52668;SDS011;59898;52.786;6.892;2023-04-06T15:12:56;16.40;;;11.07;;
52668;SDS011;59898;52.786;6.892;2023-04-06T15:16:16;17.63;;;11.98;;
52668;SDS011;59898;52.786;6.892;2023-04-06T15:19:37;13.95;;;9.82;;
52668;SDS011;59898;52.786;6.892;2023-04-06T15:22:58;12.93;;;9.60;;
52668;SDS011;59898;52.786;6.892;2023-04-06T15:26:19;16.42;;;10.98;;
52668;SDS011;59898;52.786;6.892;2023-04-06T15:29:40;16.77;;;10.45;;
52668;SDS011;59898;52.786;6.892;2023-04-06T15:33:01;14.93;;;10.15;;
52668;SDS011;59898;52.786;6.892;2023-04-06T15:36:26;12.63;;;8.38;;
52668;SDS011;59898;52.786;6.892;2023-04-06T15:39:51;16.98;;;8.90;;
52668;SDS011;59898;52.786;6.892;2023-04-06T15:43:12;15.35;;;10.43;;
52668;SDS011;59898;52.786;6.892;2023-04-06T15:46:33;15.07;;;10.85;;
52668;SDS011;59898;52.786;6.892;2023-04-06T15:49:54;16.05;;;11.50;;
52668;SDS011;59898;52.786;6.892;2023-04-06T15:53:15;14.85;;;10.73;;
52668;SDS011;59898;52.786;6.892;2023-04-06T15:56:36;18.48;;;13.35;;
52668;SDS011;59898;52.786;6.892;2023-04-06T15:59:57;16.10;;;11.00;;
52668;SDS011;59898;52.786;6.892;2023-04-06T16:03:18;17.17;;;12.02;;
52668;SDS011;59898;52.786;6.892;2023-04-06T16:06:40;20.27;;;12.55;;
52668;SDS011;59898;52.786;6.892;2023-04-06T16:10:01;17.75;;;11.98;;
52668;SDS011;59898;52.786;6.892;2023-04-06T16:13:23;20.17;;;12.55;;
52668;SDS011;59898;52.786;6.892;2023-04-06T16:16:44;21.33;;;12.88;;
52668;SDS011;59898;52.786;6.892;2023-04-06T16:20:05;20.95;;;14.70;;
52668;SDS011;59898;52.786;6.892;2023-04-06T16:23:27;20.95;;;15.65;;
52668;SDS011;59898;52.786;6.892;2023-04-06T16:26:47;21.75;;;15.15;;
52668;SDS011;59898;52.786;6.892;2023-04-06T16:30:09;21.95;;;13.63;;
52668;SDS011;59898;52.786;6.892;2023-04-06T16:33:30;21.98;;;15.20;;
52668;SDS011;59898;52.786;6.892;2023-04-06T16:36:50;20.95;;;13.38;;
52668;SDS011;59898;52.786;6.892;2023-04-06T16:40:11;21.20;;;15.10;;
52668;SDS011;59898;52.786;6.892;2023-04-06T16:43:32;25.17;;;14.80;;
52668;SDS011;59898;52.786;6.892;2023-04-06T16:46:53;20.85;;;14.10;;
52668;SDS011;59898;52.786;6.892;2023-04-06T16:50:13;21.65;;;15.15;;
52668;SDS011;59898;52.786;6.892;2023-04-06T16:53:35;22.10;;;13.85;;
52668;SDS011;59898;52.786;6.892;2023-04-06T16:56:57;21.40;;;15.13;;
52668;SDS011;59898;52.786;6.892;2023-04-06T17:00:18;21.60;;;15.63;;
52668;SDS011;59898;52.786;6.892;2023-04-06T17:03:39;17.90;;;14.60;;
52668;SDS011;59898;52.786;6.892;2023-04-06T17:07:00;25.30;;;17.60;;
52668;SDS011;59898;52.786;6.892;2023-04-06T17:10:20;19.30;;;14.50;;
52668;SDS011;59898;52.786;6.892;2023-04-06T17:13:41;23.73;;;15.13;;
52668;SDS011;59898;52.786;6.892;2023-04-06T17:17:02;23.05;;;15.30;;
52668;SDS011;59898;52.786;6.892;2023-04-06T17:20:23;21.00;;;15.82;;
52668;SDS011;59898;52.786;6.892;2023-04-06T17:23:44;24.42;;;16.35;;
52668;SDS011;59898;52.786;6.892;2023-04-06T17:27:05;23.17;;;15.93;;
52668;SDS011;59898;52.786;6.892;2023-04-06T17:30:26;26.73;;;16.92;;
52668;SDS011;59898;52.786;6.892;2023-04-06T17:33:47;22.92;;;17.38;;
52668;SDS011;59898;52.786;6.892;2023-04-06T17:37:08;23.60;;;16.70;;
52668;SDS011;59898;52.786;6.892;2023-04-06T17:40:29;24.05;;;16.98;;
52668;SDS011;59898;52.786;6.892;2023-04-06T17:43:50;24.88;;;18.70;;
52668;SDS011;59898;52.786;6.892;2023-04-06T17:47:11;21.90;;;15.45;;
52668;SDS011;59898;52.786;6.892;2023-04-06T17:50:32;26.23;;;16.90;;
52668;SDS011;59898;52.786;6.892;2023-04-06T17:53:53;26.13;;;16.33;;
52668;SDS011;59898;52.786;6.892;2023-04-06T17:57:13;25.30;;;15.75;;
52668;SDS011;59898;52.786;6.892;2023-04-06T18:00:34;26.48;;;17.83;;
52668;SDS011;59898;52.786;6.892;2023-04-06T18:03:55;26.13;;;17.45;;
52668;SDS011;59898;52.786;6.892;2023-04-06T18:07:16;25.27;;;18.52;;
52668;SDS011;59898;52.786;6.892;2023-04-06T18:10:37;28.38;;;18.80;;
52668;SDS011;59898;52.786;6.892;2023-04-06T18:13:58;28.23;;;16.50;;
52668;SDS011;59898;52.786;6.892;2023-04-06T18:17:19;27.60;;;18.30;;
52668;SDS011;59898;52.786;6.892;2023-04-06T18:20:39;29.98;;;18.83;;
52668;SDS011;59898;52.786;6.892;2023-04-06T18:24:00;25.73;;;17.88;;
52668;SDS011;59898;52.786;6.892;2023-04-06T18:27:21;24.70;;;17.58;;
52668;SDS011;59898;52.786;6.892;2023-04-06T18:30:42;25.42;;;18.83;;
52668;SDS011;59898;52.786;6.892;2023-04-06T18:34:02;29.83;;;19.13;;
52668;SDS011;59898;52.786;6.892;2023-04-06T18:37:24;27.08;;;19.23;;
52668;SDS011;59898;52.786;6.892;2023-04-06T18:40:45;26.73;;;19.50;;
52668;SDS011;59898;52.786;6.892;2023-04-06T18:44:05;30.42;;;21.77;;
52668;SDS011;59898;52.786;6.892;2023-04-06T18:47:26;28.88;;;20.27;;
52668;SDS011;59898;52.786;6.892;2023-04-06T18:50:50;31.65;;;22.13;;
52668;SDS011;59898;52.786;6.892;2023-04-06T18:54:18;34.13;;;22.40;;
52668;SDS011;59898;52.786;6.892;2023-04-06T18:57:40;31.73;;;20.63;;
52668;SDS011;59898;52.786;6.892;2023-04-06T19:01:00;29.92;;;21.85;;
52668;SDS011;59898;52.786;6.892;2023-04-06T19:04:21;33.13;;;24.25;;
52668;SDS011;59898;52.786;6.892;2023-04-06T19:07:42;26.98;;;21.00;;
52668;SDS011;59898;52.786;6.892;2023-04-06T19:11:07;28.83;;;20.40;;
52668;SDS011;59898;52.786;6.892;2023-04-06T19:14:31;30.58;;;21.85;;
52668;SDS011;59898;52.786;6.892;2023-04-06T19:17:52;33.97;;;22.92;;
52668;SDS011;59898;52.786;6.892;2023-04-06T19:21:13;31.17;;;22.73;;
52668;SDS011;59898;52.786;6.892;2023-04-06T19:24:41;33.33;;;22.48;;
52668;SDS011;59898;52.786;6.892;2023-04-06T19:28:03;28.83;;;20.63;;
52668;SDS011;59898;52.786;6.892;2023-04-06T19:31:23;32.13;;;21.00;;
52668;SDS011;59898;52.786;6.892;2023-04-06T19:34:47;29.42;;;23.13;;
52668;SDS011;59898;52.786;6.892;2023-04-06T19:38:08;32.83;;;22.35;;
52668;SDS011;59898;52.786;6.892;2023-04-06T19:41:28;39.22;;;25.83;;
52668;SDS011;59898;52.786;6.892;2023-04-06T19:44:49;36.55;;;27.17;;
52668;SDS011;59898;52.786;6.892;2023-04-06T19:48:10;27.38;;;20.90;;
52668;SDS011;59898;52.786;6.892;2023-04-06T19:51:31;30.88;;;21.92;;
52668;SDS011;59898;52.786;6.892;2023-04-06T19:54:53;31.48;;;22.88;;